Time;durP1;ratioP1;P1;durP2;ratioP2;P2;SDS_P1;SDS_P2;PMS_P1;PMS_P2;Temp;Humidity;BMP_temperature;BMP_pressure;BME280_temperature;BME280_humidity;BME280_pressure;Samples;Min_cycle;Max_cycle;Signal;HPM_P1;HPM_P2
2021/10/29 00:01:49;;;;;;;0.60;0.50;;;;;;;-144.52;100.00;61939.72;5072784;28;20455;-69
2021/10/29 00:04:16;;;;;;;0.60;0.60;;;;;;;-144.52;100.00;61939.72;5056068;28;20432;-68
2021/10/29 00:06:44;;;;;;;0.80;0.80;;;;;;;-144.52;100.00;61939.72;5055252;28;20434;-69
2021/10/29 00:09:11;;;;;;;0.60;0.50;;;;;;;-144.52;100.00;61939.72;5071266;28;20472;-68
2021/10/29 00:11:39;;;;;;;0.60;0.60;;;;;;;-144.52;100.00;61939.72;5054288;28;20480;-68
2021/10/29 00:14:06;;;;;;;0.60;0.50;;;;;;;-144.52;100.00;61939.72;5055323;28;20499;-68
2021/10/29 00:16:34;;;;;;;1.30;1.20;;;;;;;-144.52;100.00;61939.72;5056145;28;20413;-70
2021/10/29 00:19:03;;;;;;;0.60;0.60;;;;;;;-144.52;100.00;61939.72;5038046;28;20956;-69
2021/10/29 00:21:30;;;;;;;0.60;0.50;;;;;;;-144.52;100.00;61939.72;5056069;28;20528;-68
2021/10/29 00:23:56;;;;;;;1.17;0.90;;;;;;;-144.52;100.00;61939.72;5071079;28;20478;-68
2021/10/29 00:26:24;;;;;;;0.60;0.53;;;;;;;-144.52;100.00;61939.72;5055979;28;20424;-68
2021/10/29 00:28:51;;;;;;;0.60;0.50;;;;;;;-144.52;100.00;61939.72;5055436;28;20468;-69
2021/10/29 00:31:18;;;;;;;0.60;0.50;;;;;;;-144.52;100.00;61939.72;5055408;28;20432;-69
2021/10/29 00:33:52;;;;;;;0.60;0.60;;;;;;;-144.52;100.00;61939.72;5055597;28;20419;-68
2021/10/29 00:36:27;;;;;;;0.63;0.60;;;;;;;-144.52;100.00;61939.72;5054277;28;20474;-68
2021/10/29 00:38:59;;;;;;;0.60;0.50;;;;;;;-144.52;100.00;61939.72;5055530;28;20440;-68
2021/10/29 00:41:36;;;;;;;0.60;0.60;;;;;;;-144.52;100.00;61939.72;5054777;28;20495;-68
2021/10/29 00:44:08;;;;;;;0.60;0.60;;;;;;;-144.52;100.00;61939.72;5070988;28;20540;-68
2021/10/29 00:46:45;;;;;;;0.70;0.60;;;;;;;-144.52;100.00;61939.72;5070236;28;20750;-68
2021/10/29 00:49:15;;;;;;;0.60;0.60;;;;;;;-144.52;100.00;61939.72;5054570;28;20990;-67
2021/10/29 00:51:52;;;;;;;0.70;0.60;;;;;;;-144.52;100.00;61939.72;5070515;28;20432;-68
2021/10/29 00:54:26;;;;;;;0.60;0.60;;;;;;;-144.52;100.00;61939.72;5054358;28;20758;-70
2021/10/29 00:56:56;;;;;;;0.90;0.70;;;;;;;-144.52;100.00;61939.72;5055815;28;20436;-70
2021/10/29 00:59:26;;;;;;;2.93;2.73;;;;;;;-144.52;100.00;61939.72;5055540;28;20939;-72
2021/10/29 01:01:56;;;;;;;0.60;0.60;;;;;;;-144.52;100.00;61939.72;5084242;28;20528;-71
2021/10/29 01:04:34;;;;;;;0.60;0.50;;;;;;;-144.52;100.00;61939.72;5051349;28;20503;-70
2021/10/29 01:07:09;;;;;;;0.60;0.50;;;;;;;-144.52;100.00;61939.72;5082354;28;20435;-71
2021/10/29 01:09:43;;;;;;;0.60;0.50;;;;;;;-144.52;100.00;61939.72;5050608;28;20472;-71
2021/10/29 01:12:14;;;;;;;0.60;0.60;;;;;;;-144.52;100.00;61939.72;5085444;28;20428;-71
2021/10/29 01:14:54;;;;;;;0.83;0.83;;;;;;;-144.52;100.00;61939.72;5069496;28;20407;-71
2021/10/29 01:17:33;;;;;;;0.60;0.60;;;;;;;-144.52;100.00;61939.72;5069731;28;20744;-71
2021/10/29 01:20:10;;;;;;;0.60;0.50;;;;;;;-144.52;100.00;61939.72;5053033;28;20913;-71
2021/10/29 01:22:43;;;;;;;0.60;0.60;;;;;;;-144.52;100.00;61939.72;5086147;28;20465;-75
2021/10/29 01:25:17;;;;;;;0.70;0.63;;;;;;;-144.52;100.00;61939.72;5053739;28;20826;-73
2021/10/29 01:27:48;;;;;;;0.60;0.50;;;;;;;-144.52;100.00;61939.72;5068996;28;20952;-75
2021/10/29 01:30:19;;;;;;;0.60;0.50;;;;;;;-144.52;100.00;61939.72;5053745;28;20459;-71
2021/10/29 01:32:53;;;;;;;0.93;0.90;;;;;;;-144.52;100.00;61939.72;5053267;28;20455;-71
2021/10/29 01:35:28;;;;;;;0.60;0.50;;;;;;;-144.52;100.00;61939.72;5054716;28;20433;-72
2021/10/29 01:38:04;;;;;;;0.60;0.60;;;;;;;-144.52;100.00;61939.72;5069981;28;20443;-71
2021/10/29 01:40:37;;;;;;;0.60;0.53;;;;;;;-144.52;100.00;61939.72;5085069;28;20437;-70
2021/10/29 01:43:05;;;;;;;0.60;0.60;;;;;;;-144.52;100.00;61939.72;5054095;28;20431;-71
2021/10/29 01:45:33;;;;;;;0.60;0.50;;;;;;;-144.52;100.00;61939.72;5053462;28;20486;-70
2021/10/29 01:48:01;;;;;;;0.70;0.70;;;;;;;-144.52;100.00;61939.72;5054550;28;20432;-70
2021/10/29 01:50:28;;;;;;;0.60;0.50;;;;;;;-144.52;100.00;61939.72;5054133;28;20890;-70
2021/10/29 01:52:55;;;;;;;0.60;0.50;;;;;;;-144.52;100.00;61939.72;5052975;28;20461;-70
2021/10/29 01:55:23;;;;;;;0.60;0.60;;;;;;;-144.52;100.00;61939.72;5069032;28;20455;-70
2021/10/29 01:57:50;;;;;;;0.60;0.60;;;;;;;-144.52;100.00;61939.72;5053738;28;20440;-70
2021/10/29 02:00:17;;;;;;;0.60;0.50;;;;;;;-144.52;100.00;61939.72;5054250;28;20472;-71
2021/10/29 02:02:44;;;;;;;0.60;0.60;;;;;;;-144.52;100.00;61939.72;5069765;28;20455;-70
2021/10/29 02:05:12;;;;;;;0.80;0.80;;;;;;;-144.52;100.00;61939.72;5069184;28;20490;-70
2021/10/29 02:07:39;;;;;;;1.00;1.00;;;;;;;-144.52;100.00;61939.72;5052658;28;20796;-70
2021/10/29 02:10:07;;;;;;;1.00;1.00;;;;;;;-144.52;100.00;61939.72;5053412;28;20470;-70
2021/10/29 02:12:40;;;;;;;0.70;0.70;;;;;;;-144.52;100.00;61939.72;5054669;28;20408;-70
2021/10/29 02:15:08;;;;;;;1.20;1.10;;;;;;;-144.52;100.00;61939.72;5053527;28;20856;-70
2021/10/29 02:17:35;;;;;;;0.60;0.50;;;;;;;-144.52;100.00;61939.72;5053592;28;20428;-70
2021/10/29 02:20:03;;;;;;;0.60;0.60;;;;;;;-144.52;100.00;61939.72;5053320;28;20905;-70
2021/10/29 02:22:31;;;;;;;0.60;0.50;;;;;;;-144.52;100.00;61939.72;5053066;28;20516;-70
2021/10/29 02:24:58;;;;;;;0.60;0.60;;;;;;;-144.52;100.00;61939.72;5052458;28;20465;-70
2021/10/29 02:27:26;;;;;;;0.60;0.50;;;;;;;-144.52;100.00;61939.72;5052934;28;20436;-70
2021/10/29 02:29:54;;;;;;;0.60;0.50;;;;;;;-144.52;100.00;61939.72;5085329;28;20503;-70
2021/10/29 02:32:21;;;;;;;0.60;0.50;;;;;;;-144.52;100.00;61939.72;5052425;28;20456;-70
2021/10/29 02:34:48;;;;;;;0.60;0.60;;;;;;;-144.52;100.00;61939.72;5040589;28;20468;-72
2021/10/29 02:37:15;;;;;;;0.70;0.70;;;;;;;-144.52;100.00;61939.72;5069108;28;20468;-70
2021/10/29 02:39:43;;;;;;;0.60;0.60;;;;;;;-144.52;100.00;61939.72;5052549;28;20464;-70
2021/10/29 02:42:09;;;;;;;0.63;0.60;;;;;;;-144.52;100.00;61939.72;5068505;28;20440;-70
2021/10/29 02:44:37;;;;;;;0.60;0.60;;;;;;;-144.52;100.00;61939.72;5067940;28;20448;-70
2021/10/29 02:47:05;;;;;;;1.27;1.17;;;;;;;-144.52;100.00;61939.72;5053259;28;20980;-70
2021/10/29 02:49:33;;;;;;;0.83;0.83;;;;;;;-144.52;100.00;61939.72;5051930;28;20507;-70
2021/10/29 02:51:59;;;;;;;0.60;0.50;;;;;;;-144.52;100.00;61939.72;5052897;28;20527;-69
2021/10/29 02:54:26;;;;;;;0.60;0.60;;;;;;;-144.52;100.00;61939.72;5068664;28;20500;-69
2021/10/29 02:56:56;;;;;;;0.60;0.50;;;;;;;-144.52;100.00;61939.72;5053376;28;20518;-69
2021/10/29 02:59:23;;;;;;;0.70;0.70;;;;;;;-144.52;100.00;61939.72;5052778;28;20443;-70
2021/10/29 03:01:50;;;;;;;1.30;1.20;;;;;;;-144.52;100.00;61939.72;5083882;28;20441;-69
2021/10/29 03:04:20;;;;;;;0.60;0.50;;;;;;;-144.52;100.00;61939.72;5052821;28;20448;-71
2021/10/29 03:06:47;;;;;;;0.60;0.60;;;;;;;-144.52;100.00;61939.72;5065059;28;20468;-69
2021/10/29 03:09:14;;;;;;;1.47;1.37;;;;;;;-144.52;100.00;61939.72;5033138;28;20445;-69
2021/10/29 03:11:41;;;;;;;1.47;1.37;;;;;;;-144.52;100.00;61939.72;5043684;28;20488;-70
2021/10/29 03:14:08;;;;;;;0.60;0.60;;;;;;;-144.52;100.00;61939.72;5084280;28;20501;-70
2021/10/29 03:16:36;;;;;;;0.60;0.60;;;;;;;-144.52;100.00;61939.72;5084506;28;20431;-70
2021/10/29 03:19:03;;;;;;;0.60;0.50;;;;;;;-144.52;100.00;61939.72;5052109;28;20526;-70
2021/10/29 03:21:31;;;;;;;1.50;1.40;;;;;;;-144.52;100.00;61939.72;5050650;28;20449;-69
2021/10/29 03:23:58;;;;;;;0.90;0.80;;;;;;;-144.52;100.00;61939.72;5084475;28;20478;-70
2021/10/29 03:26:25;;;;;;;0.90;0.90;;;;;;;-144.52;100.00;61939.72;5052016;28;20524;-69
2021/10/29 03:28:52;;;;;;;0.73;0.73;;;;;;;-144.52;100.00;61939.72;5051598;28;20499;-70
2021/10/29 03:31:19;;;;;;;1.23;1.03;;;;;;;-144.52;100.00;61939.72;5067569;28;20473;-70
2021/10/29 03:33:47;;;;;;;0.60;0.50;;;;;;;-144.52;100.00;61939.72;5084418;28;20438;-69
2021/10/29 03:36:14;;;;;;;0.93;0.93;;;;;;;-144.52;100.00;61939.72;5051364;28;21019;-70
2021/10/29 03:39:04;;;;;;;0.60;0.60;;;;;;;-144.52;100.00;61939.72;5056542;28;20809;-70
2021/10/29 03:41:38;;;;;;;0.90;0.90;;;;;;;-144.52;100.00;61939.72;5056531;28;20449;-69
2021/10/29 03:46:45;;;;;;;0.60;0.60;;;;;;;-144.52;100.00;61939.72;5068304;28;20455;-69
2021/10/29 03:52:05;;;;;;;1.37;1.27;;;;;;;-144.52;100.00;61939.72;5055456;28;20972;-69
2021/10/29 03:54:34;;;;;;;0.70;0.70;;;;;;;-144.52;100.00;61939.72;5055819;28;20529;-71
2021/10/29 03:59:29;;;;;;;0.60;0.60;;;;;;;-144.52;100.00;61939.72;5055911;28;20472;-71
2021/10/29 04:01:57;;;;;;;0.60;0.60;;;;;;;-144.52;100.00;61939.72;5055177;28;20786;-71
2021/10/29 04:04:24;;;;;;;0.60;0.60;;;;;;;-144.52;100.00;61939.72;5051463;28;20483;-71
2021/10/29 04:06:52;;;;;;;1.33;1.23;;;;;;;-144.52;100.00;61939.72;5055624;28;20440;-71
2021/10/29 04:09:19;;;;;;;0.60;0.60;;;;;;;-144.52;100.00;61939.72;5087571;28;20464;-71
2021/10/29 04:11:48;;;;;;;1.23;1.13;;;;;;;-144.52;100.00;61939.72;5035919;28;20460;-71
2021/10/29 04:14:21;;;;;;;0.60;0.50;;;;;;;-144.52;100.00;61939.72;5051745;28;20442;-71
2021/10/29 04:16:48;;;;;;;1.33;1.23;;;;;;;-144.52;100.00;61939.72;5072926;28;20425;-71
2021/10/29 04:19:17;;;;;;;0.60;0.60;;;;;;;-144.52;100.00;61939.72;5056040;28;20425;-71
2021/10/29 04:21:44;;;;;;;0.60;0.50;;;;;;;-144.52;100.00;61939.72;5057078;28;20429;-72
2021/10/29 04:24:12;;;;;;;0.60;0.60;;;;;;;-144.52;100.00;61939.72;5059044;28;20542;-71
2021/10/29 04:26:40;;;;;;;0.60;0.50;;;;;;;-144.52;100.00;61939.72;5053426;28;20458;-71
2021/10/29 04:29:17;;;;;;;0.60;0.50;;;;;;;-144.52;100.00;61939.72;5036197;28;20442;-71
2021/10/29 04:31:49;;;;;;;0.80;0.80;;;;;;;-144.52;100.00;61939.72;5055783;28;20524;-71
2021/10/29 04:34:18;;;;;;;0.60;0.60;;;;;;;-144.52;100.00;61939.72;5053528;28;20774;-71
2021/10/29 04:36:45;;;;;;;1.57;1.47;;;;;;;-144.52;100.00;61939.72;5053252;28;20431;-71
2021/10/29 04:39:15;;;;;;;1.00;0.97;;;;;;;-144.52;100.00;61939.72;5053387;28;20459;-71
2021/10/29 04:41:46;;;;;;;0.60;0.60;;;;;;;-144.52;100.00;61939.72;5053022;28;21005;-71
2021/10/29 04:44:14;;;;;;;1.03;0.93;;;;;;;-144.52;100.00;61939.72;5051140;28;20889;-72
2021/10/29 04:46:41;;;;;;;5.33;2.50;;;;;;;-144.52;100.00;61939.72;5052289;28;20468;-71
2021/10/29 04:49:08;;;;;;;0.60;0.60;;;;;;;-144.52;100.00;61939.72;5054101;28;20459;-71
2021/10/29 04:51:35;;;;;;;0.60;0.60;;;;;;;-144.52;100.00;61939.72;5054863;28;20466;-72
2021/10/29 04:54:02;;;;;;;0.60;0.60;;;;;;;-144.52;100.00;61939.72;5054707;28;20451;-71
2021/10/29 04:56:30;;;;;;;0.60;0.60;;;;;;;-144.52;100.00;61939.72;5043263;28;20527;-71
2021/10/29 04:58:56;;;;;;;3.10;2.30;;;;;;;-144.52;100.00;61939.72;5054929;28;20440;-71
2021/10/29 05:01:25;;;;;;;0.60;0.60;;;;;;;-144.52;100.00;61939.72;5054732;28;20504;-71
2021/10/29 05:03:53;;;;;;;0.77;0.77;;;;;;;-144.52;100.00;61939.72;5054476;28;20769;-71
2021/10/29 05:06:20;;;;;;;0.60;0.60;;;;;;;-144.52;100.00;61939.72;5054348;28;20440;-71
2021/10/29 05:08:47;;;;;;;0.70;0.70;;;;;;;-144.52;100.00;61939.72;5054852;28;20501;-71
2021/10/29 05:11:15;;;;;;;0.80;0.80;;;;;;;-144.52;100.00;61939.72;5054724;28;20466;-71
2021/10/29 05:13:41;;;;;;;0.70;0.60;;;;;;;-144.52;100.00;61939.72;5054973;28;20417;-71
2021/10/29 05:16:08;;;;;;;0.60;0.60;;;;;;;-144.52;100.00;61939.72;5053716;28;20473;-71
2021/10/29 05:18:37;;;;;;;1.53;1.43;;;;;;;-144.52;100.00;61939.72;5053577;28;20805;-71
2021/10/29 05:21:04;;;;;;;0.60;0.60;;;;;;;-144.52;100.00;61939.72;5053288;28;20433;-72
2021/10/29 05:23:31;;;;;;;0.70;0.70;;;;;;;-144.52;100.00;61939.72;5055238;28;20969;-71
2021/10/29 05:25:58;;;;;;;0.90;0.90;;;;;;;-144.52;100.00;61939.72;5070115;28;20533;-70
2021/10/29 05:28:25;;;;;;;0.60;0.60;;;;;;;-144.52;100.00;61939.72;5054158;28;20937;-71
2021/10/29 05:30:52;;;;;;;0.83;0.83;;;;;;;-144.52;100.00;61939.72;5054671;28;20845;-71
2021/10/29 05:33:21;;;;;;;0.60;0.60;;;;;;;-144.52;100.00;61939.72;5053333;28;20448;-70
2021/10/29 05:35:49;;;;;;;0.60;0.50;;;;;;;-144.52;100.00;61939.72;5054191;28;20448;-71
2021/10/29 05:38:16;;;;;;;0.60;0.53;;;;;;;-144.52;100.00;61939.72;5054137;28;20515;-71
2021/10/29 05:40:43;;;;;;;0.60;0.60;;;;;;;-144.52;100.00;61939.72;5069417;28;20432;-71
2021/10/29 05:43:10;;;;;;;0.60;0.60;;;;;;;-144.52;100.00;61939.72;5054213;28;20443;-71
2021/10/29 05:45:38;;;;;;;0.80;0.80;;;;;;;-144.52;100.00;61939.72;5054050;28;20450;-71
2021/10/29 05:48:07;;;;;;;0.60;0.60;;;;;;;-144.52;100.00;61939.72;5054311;28;20409;-71
2021/10/29 05:50:36;;;;;;;0.60;0.60;;;;;;;-144.52;100.00;61939.72;5052877;28;20483;-72
2021/10/29 05:53:07;;;;;;;0.60;0.50;;;;;;;-144.52;100.00;61939.72;5053964;28;20494;-71
2021/10/29 05:55:34;;;;;;;0.60;0.60;;;;;;;-144.52;100.00;61939.72;5053804;28;20420;-71
2021/10/29 05:58:01;;;;;;;0.60;0.60;;;;;;;-144.52;100.00;61939.72;5068018;28;20480;-71
2021/10/29 06:00:31;;;;;;;1.20;1.10;;;;;;;-144.52;100.00;61939.72;5052961;28;20430;-71
2021/10/29 06:03:03;;;;;;;0.60;0.60;;;;;;;-144.52;100.00;61939.72;5053444;28;20433;-71
2021/10/29 06:05:32;;;;;;;0.60;0.60;;;;;;;-144.52;100.00;61939.72;5053751;28;20428;-71
2021/10/29 06:07:59;;;;;;;0.70;0.63;;;;;;;-144.52;100.00;61939.72;5086126;28;20526;-71
2021/10/29 06:10:28;;;;;;;0.70;0.70;;;;;;;-144.52;100.00;61939.72;5053442;28;20464;-71
2021/10/29 06:12:55;;;;;;;0.60;0.57;;;;;;;-144.52;100.00;61939.72;5068614;28;20855;-71
2021/10/29 06:15:24;;;;;;;0.70;0.70;;;;;;;-144.52;100.00;61939.72;5053642;28;20480;-71
2021/10/29 06:17:51;;;;;;;0.70;0.60;;;;;;;-144.52;100.00;61939.72;5051251;28;20422;-72
2021/10/29 06:20:20;;;;;;;0.90;0.90;;;;;;;-144.52;100.00;61939.72;5069119;28;20838;-71
2021/10/29 06:22:50;;;;;;;0.70;0.70;;;;;;;-144.52;100.00;61939.72;5051816;28;21003;-71
2021/10/29 06:25:24;;;;;;;1.67;1.57;;;;;;;-144.52;100.00;61939.72;5053311;28;20483;-71
2021/10/29 06:28:37;;;;;;;0.60;0.60;;;;;;;-144.52;100.00;61939.72;5053303;28;20405;-71
2021/10/29 06:30:47;;;;;;;0.70;0.60;;;;;;;-144.52;100.00;61939.72;5045813;28;20474;-71
2021/10/29 06:33:19;;;;;;;0.60;0.60;;;;;;;-144.52;100.00;61939.72;5052412;28;20528;-71
2021/10/29 06:35:47;;;;;;;0.70;0.70;;;;;;;-144.52;100.00;61939.72;5052082;28;21135;-68
2021/10/29 06:38:14;;;;;;;0.67;0.60;;;;;;;-144.52;100.00;61939.72;5052926;28;20462;-72
2021/10/29 06:40:45;;;;;;;0.60;0.60;;;;;;;-144.52;100.00;61939.72;5053295;28;20449;-71
2021/10/29 06:43:26;;;;;;;0.60;0.60;;;;;;;-144.52;100.00;61939.72;5051233;28;20938;-71
2021/10/29 07:40:12;;;;;;;0.60;0.60;;;;;;;-144.52;100.00;61939.72;5056646;28;20427;-70
2021/10/29 07:43:03;;;;;;;0.70;0.60;;;;;;;-144.52;100.00;61939.72;5055278;28;20434;-70
2021/10/29 07:45:31;;;;;;;0.70;0.63;;;;;;;-144.52;100.00;61939.72;5071537;28;20494;-70
2021/10/29 07:48:01;;;;;;;0.70;0.60;;;;;;;-144.52;100.00;61939.72;5068122;28;20432;-69
2021/10/29 07:50:28;;;;;;;0.60;0.50;;;;;;;-144.52;100.00;61939.72;5037727;28;20423;-70
2021/10/29 07:52:58;;;;;;;0.67;0.60;;;;;;;-144.52;100.00;61939.72;5052723;28;20475;-70
2021/10/29 07:55:27;;;;;;;1.23;1.13;;;;;;;-144.52;100.00;61939.72;5054908;28;20442;-69
2021/10/29 07:58:00;;;;;;;0.80;0.80;;;;;;;-144.52;100.00;61939.72;5054841;28;20848;-69
2021/10/29 08:00:32;;;;;;;0.60;0.60;;;;;;;-144.52;100.00;61939.72;5056060;28;20876;-69
2021/10/29 08:03:05;;;;;;;1.10;0.90;;;;;;;-144.52;100.00;61939.72;5088414;28;20781;-69
2021/10/29 08:05:33;;;;;;;0.70;0.70;;;;;;;-144.52;100.00;61939.72;5054975;28;20999;-69
2021/10/29 08:08:00;;;;;;;0.70;0.60;;;;;;;-144.52;100.00;61939.72;5055817;28;20512;-70
2021/10/29 08:10:28;;;;;;;0.80;0.80;;;;;;;-144.52;100.00;61939.72;5054248;28;20436;-69
2021/10/29 08:12:56;;;;;;;1.37;1.27;;;;;;;-144.52;100.00;61939.72;5055408;28;20822;-69
2021/10/29 08:15:23;;;;;;;0.70;0.70;;;;;;;-144.52;100.00;61939.72;5055660;28;20453;-69
2021/10/29 08:17:50;;;;;;;0.70;0.60;;;;;;;-144.52;100.00;61939.72;5054925;28;20521;-69
2021/10/29 08:20:21;;;;;;;0.70;0.60;;;;;;;-144.52;100.00;61939.72;5054810;28;20437;-72
2021/10/29 08:22:50;;;;;;;0.70;0.60;;;;;;;-144.52;100.00;61939.72;5050713;28;20940;-70
2021/10/29 08:25:17;;;;;;;0.70;0.70;;;;;;;-144.52;100.00;61939.72;5035518;28;20413;-70
2021/10/29 08:27:45;;;;;;;0.70;0.60;;;;;;;-144.52;100.00;61939.72;5039387;28;20471;-70
2021/10/29 08:30:16;;;;;;;0.70;0.60;;;;;;;-144.52;100.00;61939.72;5055897;28;20436;-70
2021/10/29 08:32:46;;;;;;;0.70;0.60;;;;;;;-144.52;100.00;61939.72;5087774;28;20584;-70
2021/10/29 08:35:13;;;;;;;0.70;0.60;;;;;;;-144.52;100.00;61939.72;5087831;28;20439;-70
2021/10/29 08:37:45;;;;;;;0.90;0.90;;;;;;;-144.52;100.00;61939.72;5054461;28;20456;-70
2021/10/29 08:40:15;;;;;;;0.70;0.60;;;;;;;-144.52;100.00;61939.72;5055538;28;20466;-70
2021/10/29 08:42:43;;;;;;;0.70;0.70;;;;;;;-144.52;100.00;61939.72;5055141;28;20515;-70
2021/10/29 08:45:11;;;;;;;0.70;0.60;;;;;;;-144.52;100.00;61939.72;5053493;28;20494;-70
2021/10/29 08:47:40;;;;;;;0.70;0.70;;;;;;;-144.52;100.00;61939.72;5053818;28;20470;-69
2021/10/29 08:50:10;;;;;;;0.83;0.83;;;;;;;-144.52;100.00;61939.72;5037524;28;20467;-69
2021/10/29 08:52:39;;;;;;;0.80;0.70;;;;;;;-144.52;100.00;61939.72;5069906;28;20533;-70
2021/10/29 08:55:08;;;;;;;0.80;0.80;;;;;;;-144.52;100.00;61939.72;5070205;28;20486;-71
2021/10/29 08:57:37;;;;;;;0.70;0.70;;;;;;;-144.52;100.00;61939.72;5053446;28;20929;-69
2021/10/29 09:00:12;;;;;;;0.70;0.60;;;;;;;-144.52;100.00;61939.72;5054618;28;20433;-70
2021/10/29 09:02:43;;;;;;;0.70;0.70;;;;;;;-144.52;100.00;61939.72;5070307;28;20409;-69
2021/10/29 09:05:17;;;;;;;0.70;0.70;;;;;;;-144.52;100.00;61939.72;5054861;28;20442;-70
2021/10/29 09:07:59;;;;;;;1.07;1.00;;;;;;;-144.52;100.00;61939.72;5069345;28;20510;-70
2021/10/29 09:10:44;;;;;;;0.70;0.70;;;;;;;-144.52;100.00;61939.72;5054758;28;20436;-70
2021/10/29 09:32:31;;;;;;;1.43;0.90;;;;;;;-144.52;100.00;61939.72;5054146;28;20490;-71
2021/10/29 09:35:07;;;;;;;0.70;0.60;;;;;;;-144.52;100.00;61939.72;5052916;28;20475;-71
2021/10/29 09:38:01;;;;;;;1.13;1.03;;;;;;;-144.52;100.00;61939.72;5069487;28;20443;-70
2021/10/29 09:40:56;;;;;;;0.70;0.70;;;;;;;-144.52;100.00;61939.72;5054525;28;20404;-70
2021/10/29 09:43:31;;;;;;;0.70;0.60;;;;;;;-144.52;100.00;61939.72;5069255;28;20868;-70
2021/10/29 09:46:09;;;;;;;0.80;0.80;;;;;;;-144.52;100.00;61939.72;5054093;28;20440;-71
2021/10/29 09:48:49;;;;;;;0.70;0.70;;;;;;;-144.52;100.00;61939.72;5068202;28;20453;-70
2021/10/29 09:51:19;;;;;;;0.70;0.70;;;;;;;-144.52;100.00;61939.72;5051983;28;20879;-70
2021/10/29 09:54:00;;;;;;;0.70;0.63;;;;;;;-144.52;100.00;61939.72;5053879;28;20959;-71
2021/10/29 09:59:00;;;;;;;0.90;0.90;;;;;;;-144.52;100.00;61939.72;5053772;28;20434;-71
2021/10/29 10:01:28;;;;;;;0.70;0.70;;;;;;;-144.52;100.00;61939.72;5086229;28;20489;-70
2021/10/29 10:04:02;;;;;;;1.70;1.60;;;;;;;-144.52;100.00;61939.72;5053109;28;20470;-69
2021/10/29 10:06:31;;;;;;;1.07;0.97;;;;;;;-144.52;100.00;61939.72;5053637;28;20424;-71
2021/10/29 10:08:59;;;;;;;0.80;0.80;;;;;;;-144.52;100.00;61939.72;5053150;28;21017;-70
2021/10/29 10:11:28;;;;;;;1.10;0.90;;;;;;;-144.52;100.00;61939.72;5052276;28;20475;-70
2021/10/29 10:13:57;;;;;;;0.70;0.70;;;;;;;-144.52;100.00;61939.72;5051334;28;20550;-71
2021/10/29 10:16:27;;;;;;;0.70;0.70;;;;;;;-144.52;100.00;61939.72;5053556;28;20941;-70
2021/10/29 10:18:55;;;;;;;1.27;1.17;;;;;;;-144.52;100.00;61939.72;5053500;28;20564;-70
2021/10/29 10:21:25;;;;;;;1.57;0.77;;;;;;;-144.52;100.00;61939.72;5053339;28;20436;-70
2021/10/29 10:23:56;;;;;;;0.70;0.63;;;;;;;-144.52;100.00;61939.72;5052954;28;20440;-70
2021/10/29 10:48:30;;;;;;;0.80;0.70;;;;;;;-144.52;100.00;61939.72;5033248;28;20754;-71
2021/10/29 10:51:40;;;;;;;0.80;0.70;;;;;;;-144.52;100.00;61939.72;5033337;28;20447;-72
2021/10/29 10:54:16;;;;;;;0.70;0.60;;;;;;;-144.52;100.00;61939.72;5048690;28;20456;-72
2021/10/29 10:57:03;;;;;;;0.70;0.70;;;;;;;-144.52;100.00;61939.72;5053129;28;20468;-72
2021/10/29 11:10:14;;;;;;;0.70;0.70;;;;;;;-144.52;100.00;61939.72;5050631;28;20475;-71
2021/10/29 11:13:05;;;;;;;0.87;0.87;;;;;;;-144.52;100.00;61939.72;5052530;28;20450;-72
2021/10/29 11:15:32;;;;;;;0.80;0.80;;;;;;;-144.52;100.00;61939.72;5067936;28;20942;-71
2021/10/29 11:18:01;;;;;;;0.70;0.60;;;;;;;-144.52;100.00;61939.72;5052825;28;20511;-71
2021/10/29 11:20:47;;;;;;;0.80;0.77;;;;;;;-144.52;100.00;61939.72;5068209;28;20442;-70
2021/10/29 11:23:22;;;;;;;0.70;0.60;;;;;;;-144.52;100.00;61939.72;5084982;28;20550;-70
2021/10/29 11:26:01;;;;;;;1.00;0.80;;;;;;;-144.52;100.00;61939.72;5068106;28;20500;-71
2021/10/29 11:28:33;;;;;;;0.70;0.70;;;;;;;-144.52;100.00;61939.72;5051716;28;20445;-70
2021/10/29 11:31:01;;;;;;;0.70;0.60;;;;;;;-144.52;100.00;61939.72;5068142;28;20415;-69
2021/10/29 11:33:28;;;;;;;0.80;0.80;;;;;;;-144.52;100.00;61939.72;5084600;28;20504;-70
2021/10/29 11:36:00;;;;;;;0.70;0.60;;;;;;;-144.52;100.00;61939.72;5084418;28;20483;-69
2021/10/29 11:38:30;;;;;;;0.80;0.70;;;;;;;-144.52;100.00;61939.72;5052203;28;20708;-69
2021/10/29 11:40:59;;;;;;;0.70;0.60;;;;;;;-144.52;100.00;61939.72;5052215;28;20447;-71
2021/10/29 11:43:31;;;;;;;0.70;0.60;;;;;;;-144.52;100.00;61939.72;5050764;28;21013;-72
2021/10/29 11:46:00;;;;;;;0.80;0.80;;;;;;;-144.52;100.00;61939.72;5051302;28;20534;-71
2021/10/29 11:48:28;;;;;;;0.70;0.60;;;;;;;-144.52;100.00;61939.72;5052451;28;20475;-71
2021/10/29 11:51:05;;;;;;;0.80;0.70;;;;;;;-144.52;100.00;61939.72;5052540;28;20438;-68
2021/10/29 11:53:36;;;;;;;0.70;0.60;;;;;;;-144.52;100.00;61939.72;5031947;28;20538;-70
2021/10/29 11:56:11;;;;;;;0.70;0.60;;;;;;;-144.52;100.00;61939.72;5034182;28;20388;-71
2021/10/29 11:58:45;;;;;;;1.90;1.10;;;;;;;-144.52;100.00;61939.72;5054326;28;20916;-70
2021/10/29 12:09:23;;;;;;;0.90;0.77;;;;;;;-144.52;100.00;61939.72;5052955;28;20470;-71
2021/10/29 12:11:54;;;;;;;0.70;0.60;;;;;;;-144.52;100.00;61939.72;5051598;28;20936;-71
2021/10/29 12:14:28;;;;;;;1.47;0.90;;;;;;;-144.52;100.00;61939.72;5068557;28;20480;-70
2021/10/29 12:16:59;;;;;;;0.70;0.70;;;;;;;-144.52;100.00;61939.72;5036582;28;21021;-70
2021/10/29 12:19:26;;;;;;;0.80;0.70;;;;;;;-144.52;100.00;61939.72;5055147;28;20436;-71
2021/10/29 12:22:03;;;;;;;0.70;0.60;;;;;;;-144.52;100.00;61939.72;5055040;28;20432;-70
2021/10/29 12:24:32;;;;;;;0.80;0.70;;;;;;;-144.52;100.00;61939.72;5052410;28;20402;-70
2021/10/29 12:27:03;;;;;;;0.70;0.60;;;;;;;-144.52;100.00;61939.72;5055384;28;20428;-71
2021/10/29 12:29:34;;;;;;;0.90;0.90;;;;;;;-144.52;100.00;61939.72;5055463;28;20437;-70
2021/10/29 12:38:07;;;;;;;0.70;0.70;;;;;;;-144.52;100.00;61939.72;5055288;28;20472;-70
2021/10/29 12:58:49;;;;;;;0.70;0.70;;;;;;;-144.52;100.00;61939.72;5055694;28;20467;-71
2021/10/29 13:03:03;;;;;;;0.70;0.70;;;;;;;-144.52;100.00;61939.72;5055399;28;20758;-70
2021/10/29 13:05:30;;;;;;;0.80;0.70;;;;;;;-144.52;100.00;61939.72;5051594;28;20531;-71
2021/10/29 13:07:57;;;;;;;1.43;1.33;;;;;;;-144.52;100.00;61939.72;5051423;28;20753;-71
2021/10/29 13:10:26;;;;;;;0.70;0.60;;;;;;;-144.52;100.00;61939.72;5070658;28;20415;-69
2021/10/29 13:15:21;;;;;;;0.70;0.70;;;;;;;-144.52;100.00;61939.72;5055617;28;20489;-69
2021/10/29 13:18:02;;;;;;;0.70;0.60;;;;;;;-144.52;100.00;61939.72;5055775;28;20527;-70
2021/10/29 13:23:31;;;;;;;1.03;0.93;;;;;;;-144.52;100.00;61939.72;5053916;28;20487;-69
2021/10/29 13:28:41;;;;;;;0.80;0.70;;;;;;;-144.52;100.00;61939.72;5053869;28;20456;-72
2021/10/29 13:58:18;;;;;;;0.70;0.60;;;;;;;-144.52;100.00;61939.72;5051952;28;20941;-71
2021/10/29 14:01:03;;;;;;;1.03;0.97;;;;;;;-144.52;100.00;61939.72;5050283;28;20485;-71
2021/10/29 14:30:38;;;;;;;0.70;0.70;;;;;;;-144.52;100.00;61939.72;5050085;28;20407;-71
2021/10/29 14:33:13;;;;;;;0.70;0.60;;;;;;;-144.52;100.00;61939.72;5050487;28;20493;-71
2021/10/29 14:35:45;;;;;;;0.70;0.60;;;;;;;-144.52;100.00;61939.72;5051154;28;20429;-72
2021/10/29 14:38:31;;;;;;;0.70;0.70;;;;;;;-144.52;100.00;61939.72;5050034;28;20459;-71
2021/10/29 14:43:57;;;;;;;0.70;0.70;;;;;;;-144.52;100.00;61939.72;5024992;28;20451;-71
2021/10/29 14:52:23;;;;;;;0.70;0.60;;;;;;;-144.52;100.00;61939.72;5052870;28;20490;-71
2021/10/29 15:32:58;;;;;;;0.77;0.67;;;;;;;-144.52;100.00;61939.72;5053075;28;20421;-71
2021/10/29 15:43:50;;;;;;;0.70;0.70;;;;;;;-144.52;100.00;61939.72;5055454;28;20440;-72
2021/10/29 15:51:26;;;;;;;0.70;0.70;;;;;;;-144.52;100.00;61939.72;5071942;28;20860;-72
2021/10/29 15:53:53;;;;;;;0.70;0.70;;;;;;;-144.52;100.00;61939.72;5037585;28;20566;-72
2021/10/29 15:56:45;;;;;;;0.70;0.67;;;;;;;-144.52;100.00;61939.72;5069726;28;20797;-71
2021/10/29 16:18:01;;;;;;;0.73;0.70;;;;;;;-144.52;100.00;61939.72;5056185;28;20422;-70